createdAt,value
2022-10-25T00:00:20.381Z,58.01
2022-10-25T00:01:20.398Z,60.59
2022-10-25T00:02:20.444Z,56.40
2022-10-25T00:03:20.368Z,55.59
2022-10-25T00:05:20.315Z,57.52
2022-10-25T00:06:20.312Z,57.69
2022-10-25T00:07:20.299Z,55.91
2022-10-25T00:08:20.345Z,57.85
2022-10-25T00:09:20.273Z,56.56
2022-10-25T00:10:23.480Z,57.20
2022-10-25T00:11:21.258Z,56.07
2022-10-25T00:12:20.258Z,56.07
2022-10-25T00:13:20.250Z,56.40
2022-10-25T00:14:20.228Z,57.36
2022-10-25T00:15:20.227Z,57.85
2022-10-25T00:16:20.209Z,58.01
2022-10-25T00:17:20.194Z,59.62
2022-10-25T00:18:20.219Z,58.01
2022-10-25T00:19:20.185Z,59.46
2022-10-25T00:20:20.168Z,57.52
2022-10-25T00:21:20.163Z,57.04
2022-10-25T00:22:20.157Z,58.81
2022-10-25T00:23:20.184Z,58.17
2022-10-25T00:24:20.137Z,58.49
2022-10-25T00:25:20.113Z,57.04
2022-10-25T00:26:20.107Z,58.49
2022-10-25T00:27:20.096Z,58.17
2022-10-25T00:28:20.108Z,59.30
2022-10-25T00:29:20.112Z,58.17
2022-10-25T00:30:20.069Z,58.17
2022-10-25T00:31:20.060Z,57.36
2022-10-25T00:32:20.050Z,58.97
2022-10-25T00:33:20.050Z,57.85
2022-10-25T00:34:20.037Z,56.40
2022-10-25T00:35:20.022Z,57.52
2022-10-25T00:36:20.004Z,58.33
2022-10-25T00:37:20.004Z,57.85
2022-10-25T00:38:20.002Z,59.78
2022-10-25T00:39:19.985Z,57.85
2022-10-25T00:40:19.982Z,58.17
2022-10-25T00:41:19.976Z,58.01
2022-10-25T00:42:19.952Z,57.85
2022-10-25T00:43:19.971Z,56.40
2022-10-25T00:44:19.927Z,57.52
2022-10-25T00:45:19.926Z,56.07
2022-10-25T00:46:19.915Z,56.56
2022-10-25T00:47:19.903Z,57.85
2022-10-25T00:48:19.916Z,56.88
2022-10-25T00:49:19.884Z,56.88
2022-10-25T00:50:19.879Z,55.75
2022-10-25T00:51:19.887Z,55.91
2022-10-25T00:52:19.849Z,56.72
2022-10-25T00:53:19.866Z,58.49
2022-10-25T00:54:19.866Z,57.04
2022-10-25T00:55:19.829Z,58.81
2022-10-25T00:56:19.817Z,57.85
2022-10-25T00:57:19.803Z,57.52
2022-10-25T00:58:19.817Z,58.01
2022-10-25T00:59:19.794Z,58.01
2022-10-25T01:00:19.775Z,56.88
2022-10-25T01:01:19.895Z,57.85
2022-10-25T01:02:19.826Z,57.52
2022-10-25T01:03:19.761Z,57.85
2022-10-25T01:04:19.730Z,58.65
2022-10-25T01:05:19.730Z,58.01
2022-10-25T01:06:19.708Z,59.78
2022-10-25T01:07:20.704Z,58.49
2022-10-25T01:08:19.705Z,56.40
2022-10-25T01:09:19.681Z,58.33
2022-10-25T01:10:19.665Z,58.81
2022-10-25T01:11:19.707Z,56.24
2022-10-25T01:12:19.657Z,55.59
2022-10-25T01:13:19.666Z,57.04
2022-10-25T01:14:19.635Z,56.88
2022-10-25T01:15:19.624Z,59.14
2022-10-25T01:16:19.610Z,59.30
2022-10-25T01:17:19.614Z,58.81
2022-10-25T01:18:19.617Z,57.04
2022-10-25T01:19:19.587Z,60.59
2022-10-25T01:20:19.574Z,56.40
2022-10-25T01:21:19.562Z,58.49
2022-10-25T01:22:19.558Z,58.01
2022-10-25T01:23:19.593Z,58.81
2022-10-25T01:24:19.528Z,61.07
2022-10-25T01:25:19.521Z,59.62
2022-10-25T01:26:19.504Z,58.81
2022-10-25T01:27:19.493Z,55.59
2022-10-25T01:28:19.509Z,55.27
2022-10-25T01:29:19.489Z,53.82
2022-10-25T01:30:19.469Z,59.46
2022-10-25T01:31:19.464Z,56.24
2022-10-25T01:32:19.445Z,56.72
2022-10-25T01:33:19.460Z,57.52
2022-10-25T01:34:19.433Z,57.36
2022-10-25T01:35:19.417Z,57.36
2022-10-25T01:36:19.418Z,56.88
2022-10-25T01:37:19.402Z,58.65
2022-10-25T01:38:19.411Z,57.52
2022-10-25T01:39:19.385Z,57.52
2022-10-25T01:40:19.376Z,56.88
2022-10-25T01:41:19.360Z,57.69
2022-10-25T01:42:19.353Z,57.85
2022-10-25T01:43:19.363Z,56.40
2022-10-25T01:44:19.332Z,58.01
2022-10-25T01:45:19.317Z,58.49
2022-10-25T01:46:19.312Z,59.14
2022-10-25T01:47:19.304Z,58.01
2022-10-25T01:48:19.304Z,59.46
2022-10-25T01:49:19.279Z,55.43
2022-10-25T01:50:19.275Z,57.52
2022-10-25T01:51:19.257Z,57.85
2022-10-25T01:52:19.252Z,57.69
2022-10-25T01:53:19.274Z,58.01
2022-10-25T01:54:19.237Z,57.85
2022-10-25T01:55:19.222Z,55.43
2022-10-25T01:56:19.214Z,55.11
2022-10-25T01:57:19.200Z,57.20
2022-10-25T01:58:19.219Z,57.85
2022-10-25T01:59:19.180Z,58.65
2022-10-25T02:00:19.155Z,58.17
2022-10-25T02:01:19.367Z,57.85
2022-10-25T02:02:19.155Z,56.56
2022-10-25T02:03:19.142Z,56.88
2022-10-25T02:04:19.145Z,57.04
2022-10-25T02:05:19.123Z,57.52
2022-10-25T02:06:19.113Z,59.46
2022-10-25T02:07:19.101Z,56.24
2022-10-25T02:08:19.091Z,55.91
2022-10-25T02:09:19.104Z,57.85
2022-10-25T02:10:20.073Z,56.07
2022-10-25T02:11:19.071Z,56.56
2022-10-25T02:12:19.052Z,56.88
2022-10-25T02:13:19.047Z,57.85
2022-10-25T02:14:19.047Z,55.43
2022-10-25T02:15:19.020Z,54.79
2022-10-25T02:16:19.006Z,57.85
2022-10-25T02:17:19.005Z,57.36
2022-10-25T02:18:19.028Z,58.97
2022-10-25T02:19:19.004Z,58.33
2022-10-25T02:20:18.987Z,58.81
2022-10-25T02:21:18.964Z,55.91
2022-10-25T02:22:18.955Z,58.49
2022-10-25T02:23:18.947Z,59.14
2022-10-25T02:24:18.950Z,58.65
2022-10-25T02:25:18.925Z,55.75
2022-10-25T02:26:18.916Z,58.01
2022-10-25T02:27:18.906Z,56.88
2022-10-25T02:28:18.889Z,58.01
2022-10-25T02:29:18.906Z,59.14
2022-10-25T02:30:18.875Z,58.81
2022-10-25T02:31:18.865Z,57.69
2022-10-25T02:32:18.852Z,57.20
2022-10-25T02:33:18.844Z,56.07
2022-10-25T02:34:18.855Z,58.65
2022-10-25T02:35:18.825Z,59.30
2022-10-25T02:36:18.814Z,55.75
2022-10-25T02:37:18.807Z,58.01
2022-10-25T02:38:18.802Z,58.01
2022-10-25T02:39:18.804Z,57.36
2022-10-25T02:40:18.786Z,56.88
2022-10-25T02:41:18.792Z,57.85
2022-10-25T02:42:18.757Z,56.07
2022-10-25T02:43:18.754Z,56.56
2022-10-25T02:44:18.747Z,59.46
2022-10-25T02:45:18.722Z,58.33
2022-10-25T02:46:18.712Z,57.69
2022-10-25T02:47:18.706Z,57.52
2022-10-25T02:48:18.688Z,60.10
2022-10-25T02:49:18.701Z,57.04
2022-10-25T02:50:18.670Z,57.85
2022-10-25T02:51:18.662Z,58.01
2022-10-25T02:52:18.653Z,57.69
2022-10-25T02:53:18.647Z,57.20
2022-10-25T02:54:18.652Z,59.62
2022-10-25T02:55:18.624Z,57.69
2022-10-25T02:56:18.617Z,58.81
2022-10-25T02:57:18.607Z,57.20
2022-10-25T02:58:18.602Z,57.36
2022-10-25T02:59:18.614Z,60.42
2022-10-25T03:00:18.584Z,57.20
2022-10-25T03:01:18.700Z,56.24
2022-10-25T03:02:18.557Z,58.49
2022-10-25T03:03:18.537Z,57.85
2022-10-25T03:04:19.555Z,59.78
2022-10-25T03:05:18.536Z,59.62
2022-10-25T03:06:18.518Z,58.17
2022-10-25T03:07:18.518Z,57.36
2022-10-25T03:08:18.582Z,61.07
2022-10-25T03:09:18.509Z,59.94
2022-10-25T03:10:18.479Z,59.62
2022-10-25T03:11:18.467Z,59.30
2022-10-25T03:12:18.470Z,59.78
2022-10-25T03:13:18.448Z,59.30
2022-10-25T03:14:18.459Z,60.59
2022-10-25T03:15:18.440Z,60.42
2022-10-25T03:16:18.436Z,60.91
2022-10-25T03:17:18.420Z,61.07
2022-10-25T03:18:18.408Z,60.10
2022-10-25T03:19:18.420Z,58.33
2022-10-25T03:20:18.384Z,58.33
2022-10-25T03:21:18.380Z,59.62
2022-10-25T03:22:18.373Z,58.81
2022-10-25T03:23:18.359Z,58.97
2022-10-25T03:24:18.367Z,59.14
2022-10-25T03:25:18.345Z,59.14
2022-10-25T03:26:18.329Z,60.91
2022-10-25T03:27:18.321Z,61.23
2022-10-25T03:28:18.334Z,59.14
2022-10-25T03:29:18.319Z,58.01
2022-10-25T03:30:18.290Z,60.59
2022-10-25T03:31:18.280Z,57.20
2022-10-25T03:32:18.265Z,58.17
2022-10-25T03:33:18.313Z,58.49
2022-10-25T03:34:18.262Z,60.26
2022-10-25T03:35:18.266Z,60.59
2022-10-25T03:36:18.231Z,60.91
2022-10-25T03:37:18.225Z,60.59
2022-10-25T03:38:18.201Z,60.75
2022-10-25T03:39:18.222Z,60.59
2022-10-25T03:40:18.187Z,59.46
2022-10-25T03:41:18.182Z,60.91
2022-10-25T03:42:18.169Z,60.59
2022-10-25T03:43:18.230Z,62.04
2022-10-25T03:44:18.170Z,61.55
2022-10-25T03:45:18.143Z,60.91
2022-10-25T03:46:18.133Z,61.39
2022-10-25T03:47:18.118Z,61.07
2022-10-25T03:48:18.099Z,61.07
2022-10-25T03:49:18.112Z,60.10
2022-10-25T03:50:18.081Z,60.75
2022-10-25T03:51:18.079Z,62.04
2022-10-25T03:52:18.069Z,61.07
2022-10-25T03:53:18.078Z,61.07
2022-10-25T03:54:18.071Z,60.10
2022-10-25T03:55:18.036Z,60.59
2022-10-25T03:58:37.010Z,61.71
2022-10-25T03:59:37.012Z,60.91
2022-10-25T04:00:37.030Z,61.39
2022-10-25T04:01:37.100Z,61.07
2022-10-25T04:02:36.975Z,60.91
2022-10-25T04:03:36.964Z,60.26
2022-10-25T04:04:36.966Z,61.23
2022-10-25T04:05:38.062Z,62.04
2022-10-25T04:06:38.041Z,62.20
2022-10-25T04:07:38.044Z,63.16
2022-10-25T04:08:38.031Z,62.52
2022-10-25T04:09:38.039Z,63.49
2022-10-25T04:10:38.011Z,63.97
2022-10-25T04:11:38.001Z,63.33
2022-10-25T04:12:38.092Z,63.16
2022-10-25T04:13:37.978Z,61.55
2022-10-25T04:14:37.986Z,62.36
2022-10-25T04:15:37.968Z,61.55
2022-10-25T04:16:37.949Z,61.55
2022-10-25T04:17:37.936Z,62.04
2022-10-25T04:18:37.924Z,62.04
2022-10-25T04:19:37.939Z,63.16
2022-10-25T04:20:37.910Z,62.52
2022-10-25T04:21:37.895Z,61.39
2022-10-25T04:23:37.879Z,62.68
2022-10-25T04:24:37.884Z,62.36
2022-10-25T04:25:37.857Z,61.39
2022-10-25T04:26:37.856Z,62.68
2022-10-25T04:27:37.834Z,63.16
2022-10-25T04:28:37.817Z,62.36
2022-10-25T04:29:37.823Z,62.84
2022-10-25T04:30:38.797Z,61.55
2022-10-25T04:31:37.789Z,62.04
2022-10-25T04:32:37.771Z,62.04
2022-10-25T04:33:37.766Z,62.52
2022-10-25T04:34:37.767Z,63.00
2022-10-25T04:35:37.743Z,63.16
2022-10-25T04:36:37.733Z,63.49
2022-10-25T04:37:37.719Z,64.45
2022-10-25T04:38:37.714Z,65.42
2022-10-25T04:39:37.717Z,64.13
2022-10-25T04:40:37.693Z,63.16
2022-10-25T04:41:37.683Z,63.16
2022-10-25T04:42:37.661Z,64.13
2022-10-25T04:43:37.656Z,64.61
2022-10-25T04:44:37.663Z,63.16
2022-10-25T04:45:37.639Z,63.16
2022-10-25T04:46:37.615Z,64.61
2022-10-25T04:47:37.622Z,63.33
2022-10-25T04:48:37.606Z,61.39
2022-10-25T04:49:37.613Z,64.13
2022-10-25T04:50:37.590Z,62.84
2022-10-25T04:51:37.645Z,62.04
2022-10-25T04:52:37.568Z,63.16
2022-10-25T04:53:37.551Z,63.97
2022-10-25T04:54:37.550Z,63.33
2022-10-25T04:55:37.532Z,63.97
2022-10-25T04:56:37.531Z,63.49
2022-10-25T04:57:37.510Z,63.49
2022-10-25T04:58:37.505Z,62.36
2022-10-25T04:59:37.516Z,62.68
2022-10-25T05:00:37.487Z,63.65
2022-10-25T05:01:37.549Z,62.36
2022-10-25T05:02:37.528Z,62.52
2022-10-25T05:03:37.449Z,62.04
2022-10-25T05:04:37.461Z,62.52
2022-10-25T05:05:37.433Z,61.87
2022-10-25T05:06:37.412Z,62.68
2022-10-25T05:07:37.415Z,62.84
2022-10-25T05:08:37.399Z,62.68
2022-10-25T05:09:37.416Z,62.36
2022-10-25T05:10:37.384Z,63.16
2022-10-25T05:12:38.364Z,62.52
2022-10-25T05:13:37.355Z,62.84
2022-10-25T05:14:37.359Z,63.97
2022-10-25T05:15:37.338Z,62.84
2022-10-25T05:16:37.329Z,63.00
2022-10-25T05:17:37.307Z,62.68
2022-10-25T05:18:37.302Z,62.68
2022-10-25T05:19:37.313Z,63.49
2022-10-25T05:20:37.273Z,62.04
2022-10-25T05:21:37.270Z,62.20
2022-10-25T05:22:37.265Z,63.00
2022-10-25T05:23:37.247Z,62.36
2022-10-25T05:24:37.340Z,63.49
2022-10-25T05:25:38.234Z,62.68
2022-10-25T05:26:37.223Z,62.52
2022-10-25T05:27:37.210Z,63.49
2022-10-25T05:28:37.202Z,63.00
2022-10-25T05:29:37.206Z,63.65
2022-10-25T05:30:37.167Z,62.36
2022-10-25T05:31:37.165Z,62.84
2022-10-25T05:32:37.162Z,62.36
2022-10-25T05:33:37.152Z,63.16
2022-10-25T05:34:37.146Z,63.16
2022-10-25T05:35:37.131Z,62.52
2022-10-25T05:36:37.119Z,61.87
2022-10-25T05:37:37.109Z,61.39
2022-10-25T05:38:37.800Z,61.23
2022-10-25T05:39:37.115Z,61.55
2022-10-25T05:40:37.088Z,62.84
2022-10-25T05:41:37.363Z,62.52
2022-10-25T05:42:37.061Z,63.16
2022-10-25T05:43:37.053Z,63.00
2022-10-25T05:44:37.057Z,63.16
2022-10-25T05:45:37.035Z,63.00
2022-10-25T05:46:37.011Z,61.39
2022-10-25T05:47:37.009Z,61.55
2022-10-25T05:48:37.003Z,63.00
2022-10-25T05:49:37.000Z,63.16
2022-10-25T05:50:37.016Z,62.68
2022-10-25T05:51:37.296Z,63.33
2022-10-25T05:52:36.961Z,62.68
2022-10-25T05:53:36.958Z,61.71
2022-10-25T05:54:36.953Z,62.68
2022-10-25T05:55:36.937Z,62.04
2022-10-25T05:56:36.917Z,61.55
2022-10-25T05:57:36.917Z,61.87
2022-10-25T05:58:36.891Z,62.52
2022-10-25T05:59:36.912Z,61.71
2022-10-25T06:01:36.974Z,62.36
2022-10-25T06:02:36.856Z,62.84
2022-10-25T06:03:36.849Z,62.04
2022-10-25T06:04:36.862Z,63.49
2022-10-25T06:05:36.825Z,63.00
2022-10-25T06:06:36.813Z,63.00
2022-10-25T06:07:36.814Z,62.52
2022-10-25T06:08:36.801Z,62.36
2022-10-25T06:09:36.801Z,61.87
2022-10-25T06:10:36.845Z,62.52
2022-10-25T06:11:36.774Z,62.36
2022-10-25T06:12:36.753Z,62.04
2022-10-25T06:13:36.749Z,61.87
2022-10-25T06:14:36.749Z,60.59
2022-10-25T06:15:36.729Z,63.00
2022-10-25T06:16:36.723Z,62.68
2022-10-25T06:17:36.721Z,63.65
2022-10-25T06:18:36.701Z,62.04
2022-10-25T06:19:36.713Z,62.04
2022-10-25T06:20:36.738Z,61.87
2022-10-25T06:21:36.691Z,61.39
2022-10-25T06:22:36.662Z,61.55
2022-10-25T06:23:36.652Z,61.39
2022-10-25T06:24:36.663Z,61.55
2022-10-25T06:25:36.669Z,62.68
2022-10-25T06:26:36.624Z,61.23
2022-10-25T06:27:36.642Z,62.20
2022-10-25T06:28:36.605Z,62.36
2022-10-25T06:29:36.613Z,61.87
2022-10-25T06:30:36.570Z,62.68
2022-10-25T06:31:36.572Z,61.87
2022-10-25T06:32:36.556Z,61.55
2022-10-25T06:33:36.549Z,62.04
2022-10-25T06:34:36.555Z,61.07
2022-10-25T06:35:36.528Z,61.39
2022-10-25T06:36:36.526Z,61.87
2022-10-25T06:37:36.523Z,61.23
2022-10-25T06:38:36.495Z,62.36
2022-10-25T06:39:36.506Z,61.87
2022-10-25T06:40:36.488Z,62.20
2022-10-25T06:41:36.936Z,63.49
2022-10-25T06:42:36.453Z,62.84
2022-10-25T06:43:36.519Z,62.52
2022-10-25T06:44:36.466Z,62.68
2022-10-25T06:45:36.488Z,61.23
2022-10-25T06:46:57.866Z,60.42
2022-10-25T06:47:37.417Z,60.91
2022-10-25T06:48:36.405Z,61.39
2022-10-25T06:49:36.405Z,61.87
2022-10-25T06:50:36.371Z,62.68
2022-10-25T06:51:36.368Z,62.52
2022-10-25T06:52:36.365Z,62.20
2022-10-25T06:53:36.344Z,62.04
2022-10-25T06:54:36.347Z,62.84
2022-10-25T06:55:36.330Z,62.52
2022-10-25T06:56:36.320Z,63.00
2022-10-25T06:57:36.300Z,62.04
2022-10-25T06:58:36.292Z,62.36
2022-10-25T06:59:36.303Z,60.75
2022-10-25T07:00:36.273Z,62.68
2022-10-25T07:01:36.346Z,61.39
2022-10-25T07:02:36.250Z,61.55
2022-10-25T07:03:36.230Z,61.55
2022-10-25T07:04:36.251Z,61.71
2022-10-25T07:05:36.209Z,61.55
2022-10-25T07:06:36.483Z,60.75
2022-10-25T07:07:36.194Z,61.87
2022-10-25T07:08:36.208Z,60.10
2022-10-25T07:09:36.187Z,60.75
2022-10-25T07:10:36.160Z,62.04
2022-10-25T07:11:36.154Z,62.04
2022-10-25T07:12:36.163Z,62.52
2022-10-25T07:13:36.133Z,63.33
2022-10-25T07:14:36.130Z,62.20
2022-10-25T07:15:38.601Z,63.16
2022-10-25T07:16:37.101Z,62.20
2022-10-25T07:17:36.097Z,62.52
2022-10-25T07:18:36.106Z,62.36
2022-10-25T07:19:36.097Z,61.55
2022-10-25T07:20:36.059Z,61.87
2022-10-25T07:21:36.053Z,60.59
2022-10-25T07:22:36.051Z,60.75
2022-10-25T07:23:36.027Z,63.49
2022-10-25T07:24:36.047Z,61.87
2022-10-25T07:25:36.005Z,60.91
2022-10-25T07:26:35.997Z,61.87
2022-10-25T07:27:35.983Z,60.91
2022-10-25T07:28:35.978Z,61.55
2022-10-25T07:29:35.987Z,61.39
2022-10-25T07:30:35.965Z,61.07
2022-10-25T07:31:35.963Z,62.04
2022-10-25T07:32:41.399Z,61.87
2022-10-25T07:33:37.926Z,61.39
2022-10-25T07:34:35.933Z,62.20
2022-10-25T07:35:42.095Z,61.39
2022-10-25T07:36:36.900Z,61.07
2022-10-25T07:37:35.881Z,61.07
2022-10-25T07:38:35.884Z,62.04
2022-10-25T07:39:35.872Z,61.07
2022-10-25T07:40:35.854Z,61.71
2022-10-25T07:41:35.840Z,61.07
2022-10-25T07:42:35.835Z,61.71
2022-10-25T07:43:35.810Z,62.52
2022-10-25T07:44:35.863Z,62.84
2022-10-25T07:45:35.799Z,61.87
2022-10-25T07:46:35.791Z,61.71
2022-10-25T07:47:35.794Z,61.71
2022-10-25T07:48:35.762Z,62.52
2022-10-25T07:49:35.792Z,61.71
2022-10-25T07:50:35.749Z,62.04
2022-10-25T07:51:35.747Z,62.52
2022-10-25T07:52:35.726Z,62.36
2022-10-25T07:53:35.718Z,63.16
2022-10-25T07:54:35.752Z,61.23
2022-10-25T07:55:35.697Z,62.20
2022-10-25T07:56:35.685Z,61.55
2022-10-25T07:57:35.668Z,62.68
2022-10-25T07:58:35.826Z,61.87
2022-10-25T07:59:35.670Z,61.39
2022-10-25T08:00:35.647Z,61.55
2022-10-25T08:01:35.664Z,61.39
2022-10-25T08:02:35.625Z,63.16
2022-10-25T08:03:35.620Z,63.16
2022-10-25T08:04:35.638Z,61.07
2022-10-25T08:05:35.613Z,61.39
2022-10-25T08:06:35.589Z,61.39
2022-10-25T08:07:35.580Z,61.55
2022-10-25T08:08:35.574Z,62.68
2022-10-25T08:09:38.301Z,62.84
2022-10-25T08:10:36.561Z,62.04
2022-10-25T08:11:35.543Z,63.00
2022-10-25T08:12:35.540Z,62.52
2022-10-25T08:13:35.527Z,62.68
2022-10-25T08:14:39.603Z,61.71
2022-10-25T08:15:35.499Z,63.00
2022-10-25T08:16:35.495Z,61.39
2022-10-25T08:17:35.471Z,61.71
2022-10-25T08:18:35.466Z,62.68
2022-10-25T08:19:35.476Z,61.87
2022-10-25T08:21:00.506Z,63.33
2022-10-25T08:21:37.437Z,63.81
2022-10-25T08:22:35.420Z,62.68
2022-10-25T08:23:35.416Z,61.71
2022-10-25T08:24:35.423Z,62.20
2022-10-25T08:25:35.387Z,62.36
2022-10-25T08:26:36.998Z,61.71
2022-10-25T08:27:35.370Z,61.87
2022-10-25T08:28:35.413Z,63.00
2022-10-25T08:29:35.352Z,62.04
2022-10-25T08:30:35.345Z,61.55
2022-10-25T08:31:35.346Z,62.52
2022-10-25T08:32:35.318Z,61.71
2022-10-25T08:33:35.333Z,60.91
2022-10-25T08:34:35.289Z,62.20
2022-10-25T08:35:35.292Z,62.20
2022-10-25T08:36:35.275Z,61.07
2022-10-25T08:37:35.270Z,60.59
2022-10-25T08:38:35.268Z,60.59
2022-10-25T08:39:35.256Z,63.00
2022-10-25T08:40:35.235Z,62.52
2022-10-25T08:41:35.229Z,61.71
2022-10-25T08:42:35.220Z,62.36
2022-10-25T08:43:35.227Z,60.91
2022-10-25T08:44:35.202Z,61.23
2022-10-25T08:45:35.177Z,63.00
2022-10-25T08:46:35.177Z,62.36
2022-10-25T08:47:35.166Z,62.04
2022-10-25T08:48:35.177Z,62.36
2022-10-25T08:49:35.151Z,63.16
2022-10-25T08:50:35.141Z,61.55
2022-10-25T08:51:35.134Z,59.62
2022-10-25T08:52:35.120Z,61.39
2022-10-25T08:53:35.127Z,60.91
2022-10-25T08:54:35.152Z,61.07
2022-10-25T08:55:35.091Z,60.59
2022-10-25T08:56:39.481Z,60.91
2022-10-25T08:57:37.061Z,60.42
2022-10-25T08:58:35.075Z,60.42
2022-10-25T08:59:35.054Z,58.81
2022-10-25T09:00:35.046Z,60.10
2022-10-25T09:01:35.076Z,61.07
2022-10-25T09:02:35.136Z,60.42
2022-10-25T09:03:35.065Z,61.55
2022-10-25T09:04:34.999Z,61.23
2022-10-25T09:05:34.991Z,59.62
2022-10-25T09:06:34.999Z,60.75
2022-10-25T09:07:36.364Z,58.49
2022-10-25T09:08:34.974Z,58.17
2022-10-25T09:09:34.967Z,59.62
2022-10-25T09:10:34.935Z,58.17
2022-10-25T09:11:34.940Z,60.91
2022-10-25T09:12:34.928Z,60.91
2022-10-25T09:14:34.907Z,61.87
2022-10-25T09:15:36.829Z,59.46
2022-10-25T09:16:34.888Z,60.91
2022-10-25T09:17:34.866Z,60.10
2022-10-25T09:18:34.888Z,60.10
2022-10-25T09:19:34.858Z,62.52
2022-10-25T09:20:34.843Z,61.23
2022-10-25T09:21:34.832Z,60.10
2022-10-25T09:22:34.827Z,59.94
2022-10-25T09:23:34.851Z,60.91
2022-10-25T09:24:34.805Z,61.55
2022-10-25T09:25:34.804Z,60.75
2022-10-25T09:26:34.788Z,62.36
2022-10-25T09:27:34.786Z,61.39
2022-10-25T09:28:34.800Z,61.07
2022-10-25T09:29:34.772Z,60.26
2022-10-25T09:30:34.753Z,59.14
2022-10-25T09:31:34.736Z,60.59
2022-10-25T09:32:34.728Z,61.07
2022-10-25T09:33:34.724Z,60.75
2022-10-25T09:34:34.728Z,60.91
2022-10-25T09:35:34.716Z,59.78
2022-10-25T09:36:34.693Z,62.20
2022-10-25T09:37:34.680Z,61.07
2022-10-25T09:38:34.661Z,61.71
2022-10-25T09:39:34.688Z,62.20
2022-10-25T09:40:34.653Z,60.75
2022-10-25T09:41:34.640Z,61.39
2022-10-25T09:42:34.626Z,60.59
2022-10-25T09:43:34.650Z,59.46
2022-10-25T09:44:34.601Z,59.14
2022-10-25T09:45:37.366Z,60.26
2022-10-25T09:46:35.587Z,62.36
2022-10-25T09:47:34.577Z,61.39
2022-10-25T09:48:34.590Z,59.46
2022-10-25T09:49:34.554Z,61.39
2022-10-25T09:50:34.542Z,59.94
2022-10-25T09:51:34.535Z,60.91
2022-10-25T09:52:34.531Z,58.01
2022-10-25T09:53:34.529Z,59.78
2022-10-25T09:54:34.503Z,61.55
2022-10-25T09:55:34.504Z,60.91
2022-10-25T09:57:06.392Z,59.78
2022-10-25T09:57:34.474Z,60.10
2022-10-25T09:58:34.491Z,59.30
2022-10-25T09:59:34.456Z,60.26
2022-10-25T10:00:34.518Z,58.97
2022-10-25T10:01:34.560Z,60.42
2022-10-25T10:02:34.527Z,60.59
2022-10-25T10:03:34.414Z,61.71
2022-10-25T10:04:35.408Z,61.55
2022-10-25T10:05:34.395Z,60.10
2022-10-25T10:06:34.388Z,59.94
2022-10-25T10:07:34.371Z,63.16
2022-10-25T10:08:34.378Z,61.71
2022-10-25T10:09:34.352Z,60.75
2022-10-25T10:10:34.351Z,62.04
2022-10-25T10:11:34.341Z,60.59
2022-10-25T10:12:34.327Z,61.39
2022-10-25T10:13:34.328Z,59.30
2022-10-25T10:14:34.308Z,60.59
2022-10-25T10:15:34.300Z,61.23
2022-10-25T10:16:34.290Z,61.55
2022-10-25T10:17:34.270Z,62.20
2022-10-25T10:18:34.293Z,61.07
2022-10-25T10:19:34.256Z,61.87
2022-10-25T10:20:34.246Z,61.23
2022-10-25T10:21:34.230Z,61.23
2022-10-25T10:22:34.228Z,61.71
2022-10-25T10:23:34.238Z,61.23
2022-10-25T10:24:34.193Z,61.07
2022-10-25T10:25:34.194Z,60.10
2022-10-25T10:26:34.175Z,61.87
2022-10-25T10:27:34.165Z,60.59
2022-10-25T10:28:34.175Z,62.04
2022-10-25T10:29:34.140Z,60.75
2022-10-25T10:30:34.132Z,62.52
2022-10-25T10:31:34.122Z,61.23
2022-10-25T10:32:34.150Z,61.07
2022-10-25T10:33:34.125Z,59.78
2022-10-25T10:34:35.094Z,60.91
2022-10-25T10:35:34.095Z,60.59
2022-10-25T10:36:34.070Z,61.87
2022-10-25T10:37:34.063Z,60.10
2022-10-25T10:38:34.062Z,59.94
2022-10-25T10:39:34.039Z,60.26
2022-10-25T10:40:34.030Z,60.91
2022-10-25T10:41:34.012Z,61.23
2022-10-25T10:42:34.017Z,60.91
2022-10-25T10:43:34.026Z,62.20
2022-10-25T10:44:33.990Z,59.14
2022-10-25T10:45:33.970Z,61.55
2022-10-25T10:46:33.971Z,61.55
2022-10-25T10:47:33.961Z,61.55
2022-10-25T10:48:35.776Z,59.78
2022-10-25T10:49:33.934Z,61.55
2022-10-25T10:50:33.925Z,62.68
2022-10-25T10:51:43.388Z,61.55
2022-10-25T10:52:35.906Z,60.26
2022-10-25T10:53:33.915Z,61.87
2022-10-25T10:54:33.889Z,60.26
2022-10-25T10:55:33.881Z,61.55
2022-10-25T10:56:33.868Z,60.10
2022-10-25T10:57:33.855Z,62.36
2022-10-25T10:58:33.866Z,64.45
2022-10-25T10:59:33.846Z,63.16
2022-10-25T11:00:33.841Z,63.00
2022-10-25T11:01:33.963Z,62.36
2022-10-25T11:02:33.979Z,61.07
2022-10-25T11:03:33.826Z,62.04
2022-10-25T11:04:33.803Z,61.71
2022-10-25T11:05:33.784Z,60.26
2022-10-25T11:06:33.769Z,61.07
2022-10-25T11:07:33.752Z,61.39
2022-10-25T11:08:33.769Z,61.87
2022-10-25T11:09:33.723Z,60.59
2022-10-25T11:10:33.732Z,61.55
2022-10-25T11:11:33.714Z,60.10
2022-10-25T11:12:37.568Z,60.26
2022-10-25T11:13:33.684Z,62.04
2022-10-25T11:14:33.696Z,61.87
2022-10-25T11:15:33.669Z,61.87
2022-10-25T11:16:33.665Z,59.78
2022-10-25T11:17:33.650Z,61.55
2022-10-25T11:18:33.634Z,61.23
2022-10-25T11:19:33.641Z,61.71
2022-10-25T11:20:33.617Z,61.07
2022-10-25T11:21:33.690Z,61.07
2022-10-25T11:22:33.691Z,60.75
2022-10-25T11:23:33.589Z,61.55
2022-10-25T11:24:33.595Z,62.04
2022-10-25T11:25:33.576Z,62.68
2022-10-25T11:26:33.584Z,62.04
2022-10-25T11:27:35.043Z,61.71
2022-10-25T11:28:33.538Z,63.00
2022-10-25T11:29:33.533Z,63.97
2022-10-25T11:30:33.510Z,63.49
2022-10-25T11:31:33.502Z,63.16
2022-10-25T11:32:33.563Z,63.65
2022-10-25T11:33:33.483Z,63.33
2022-10-25T11:34:33.491Z,64.61
2022-10-25T11:35:33.462Z,65.26
2022-10-25T11:36:33.474Z,63.49
2022-10-25T11:37:33.510Z,64.29
2022-10-25T11:38:34.425Z,63.65
2022-10-25T11:39:33.436Z,63.00
2022-10-25T11:40:33.411Z,64.78
2022-10-25T11:41:33.403Z,63.97
2022-10-25T11:42:33.389Z,63.65
2022-10-25T11:43:33.374Z,63.49
2022-10-25T11:44:33.399Z,63.81
2022-10-25T11:45:33.376Z,63.16
2022-10-25T11:46:33.358Z,62.36
2022-10-25T11:47:33.347Z,63.49
2022-10-25T11:48:33.337Z,62.68
2022-10-25T11:49:33.333Z,62.84
2022-10-25T11:50:33.314Z,62.68
2022-10-25T11:51:33.318Z,63.00
2022-10-25T11:52:33.291Z,61.71
2022-10-25T11:53:33.360Z,62.52
2022-10-25T11:54:33.280Z,61.39
2022-10-25T11:55:33.263Z,62.36
2022-10-25T11:56:33.249Z,63.49
2022-10-25T11:57:33.232Z,63.49
2022-10-25T11:58:33.223Z,64.13
2022-10-25T11:59:33.219Z,61.87
2022-10-25T12:00:33.200Z,63.00
2022-10-25T12:01:33.208Z,62.20
2022-10-25T12:02:33.211Z,62.84
2022-10-25T12:03:33.164Z,62.68
2022-10-25T12:04:34.789Z,62.04
2022-10-25T12:05:33.149Z,62.84
2022-10-25T12:06:33.174Z,64.29
2022-10-25T12:07:33.135Z,64.78
2022-10-25T12:08:33.118Z,62.20
2022-10-25T12:09:33.208Z,63.16
2022-10-25T12:10:33.146Z,63.49
2022-10-25T12:11:33.093Z,63.16
2022-10-25T12:12:33.077Z,62.52
2022-10-25T12:13:33.059Z,61.71
2022-10-25T12:14:33.075Z,61.07
2022-10-25T12:15:33.070Z,62.52
2022-10-25T12:16:33.049Z,61.87
2022-10-25T12:17:33.031Z,63.97
2022-10-25T12:18:33.033Z,63.33
2022-10-25T12:19:33.044Z,62.36
2022-10-25T12:21:32.991Z,63.16
2022-10-25T12:22:32.992Z,63.16
2022-10-25T12:23:32.974Z,63.33
2022-10-25T12:24:32.994Z,61.87
2022-10-25T12:25:33.039Z,61.87
2022-10-25T12:26:32.951Z,63.33
2022-10-25T12:27:32.942Z,62.52
2022-10-25T12:28:32.933Z,62.68
2022-10-25T12:29:32.928Z,61.23
2022-10-25T12:30:32.905Z,61.87
2022-10-25T12:31:32.896Z,62.52
2022-10-25T12:32:32.883Z,63.16
2022-10-25T12:33:32.908Z,63.00
2022-10-25T12:34:32.861Z,64.29
2022-10-25T12:35:32.852Z,65.26
2022-10-25T12:36:32.847Z,65.26
2022-10-25T12:37:32.843Z,64.29
2022-10-25T12:38:32.837Z,64.13
2022-10-25T12:39:32.825Z,63.00
2022-10-25T12:40:33.811Z,63.33
2022-10-25T12:41:32.877Z,64.13
2022-10-25T12:42:32.786Z,63.65
2022-10-25T12:43:32.791Z,64.13
2022-10-25T12:44:32.759Z,63.33
2022-10-25T12:45:32.754Z,63.97
2022-10-25T12:46:32.748Z,64.61
2022-10-25T12:47:32.733Z,63.97
2022-10-25T12:48:32.739Z,63.65
2022-10-25T12:49:32.705Z,63.65
2022-10-25T12:50:32.719Z,62.84
2022-10-25T12:51:32.697Z,63.65
2022-10-25T12:52:32.685Z,63.97
2022-10-25T12:53:32.700Z,63.49
2022-10-25T12:54:32.662Z,63.65
2022-10-25T12:55:32.655Z,63.49
2022-10-25T12:56:32.641Z,63.49
2022-10-25T12:57:32.710Z,63.97
2022-10-25T12:58:32.634Z,63.81
2022-10-25T12:59:32.612Z,63.97
2022-10-25T13:00:32.603Z,64.45